createdAt,value
2018-12-26T00:00:01.413Z,73.45
2018-12-26T00:02:27.804Z,73.71
2018-12-26T00:04:54.233Z,73.44
2018-12-26T00:07:20.541Z,73.41
2018-12-26T00:09:46.992Z,73.67
2018-12-26T00:12:13.340Z,73.89
2018-12-26T00:14:39.698Z,73.92
2018-12-26T00:17:06.025Z,74.08
2018-12-26T00:19:32.351Z,74.25
2018-12-26T00:21:58.622Z,74.36
2018-12-26T00:24:24.930Z,74.48
2018-12-26T00:26:51.226Z,74.65
2018-12-26T00:29:17.553Z,74.83
2018-12-26T00:31:43.834Z,74.60
2018-12-26T00:34:10.147Z,74.73
2018-12-26T00:36:36.438Z,75.04
2018-12-26T00:39:02.733Z,75.04
2018-12-26T00:41:29.084Z,75.32
2018-12-26T00:43:55.411Z,75.36
2018-12-26T00:46:21.678Z,75.52
2018-12-26T00:48:47.981Z,75.68
2018-12-26T00:51:14.278Z,75.92
2018-12-26T00:53:40.578Z,76.11
2018-12-26T00:56:10.610Z,76.15
2018-12-26T00:58:33.188Z,76.31
2018-12-26T01:00:59.489Z,76.81
2018-12-26T01:03:25.779Z,76.82
2018-12-26T01:05:52.089Z,77.06
2018-12-26T01:08:18.375Z,77.06
2018-12-26T01:10:44.714Z,77.18
2018-12-26T01:13:11.031Z,77.35
2018-12-26T01:15:37.312Z,77.50
2018-12-26T01:18:03.618Z,77.83
2018-12-26T01:20:29.921Z,77.75
2018-12-26T01:22:56.243Z,78.10
2018-12-26T01:25:22.517Z,78.14
2018-12-26T01:27:49.116Z,78.36
2018-12-26T01:30:15.435Z,78.65
2018-12-26T01:32:41.732Z,78.68
2018-12-26T01:35:08.019Z,78.76
2018-12-26T01:37:34.309Z,78.71
2018-12-26T01:40:00.611Z,78.76
2018-12-26T01:42:26.908Z,78.98
2018-12-26T01:44:54.225Z,78.79
2018-12-26T01:47:19.781Z,79.00
2018-12-26T01:49:46.116Z,79.09
2018-12-26T01:52:12.407Z,78.92
2018-12-26T01:54:38.703Z,79.02
2018-12-26T01:57:05.146Z,79.16
2018-12-26T01:59:31.585Z,79.14
2018-12-26T02:01:58.049Z,79.52
2018-12-26T02:04:24.354Z,79.47
2018-12-26T02:06:50.646Z,79.55
2018-12-26T02:09:17.103Z,79.29
2018-12-26T02:11:43.389Z,79.18
2018-12-26T02:14:09.721Z,79.30
2018-12-26T02:16:36.004Z,79.58
2018-12-26T02:19:02.343Z,79.42
2018-12-26T02:21:28.639Z,79.45
2018-12-26T02:23:54.954Z,79.51
2018-12-26T02:26:21.322Z,79.59
2018-12-26T02:28:47.709Z,79.53
2018-12-26T02:31:14.043Z,79.59
2018-12-26T02:33:40.335Z,79.54
2018-12-26T02:36:06.669Z,79.73
2018-12-26T02:38:33.017Z,79.96
2018-12-26T02:40:59.320Z,79.75
2018-12-26T02:43:25.675Z,79.91
2018-12-26T02:45:52.018Z,80.10
2018-12-26T02:48:18.298Z,80.01
2018-12-26T02:50:44.620Z,80.11
2018-12-26T02:53:10.974Z,80.14
2018-12-26T02:55:37.281Z,80.00
2018-12-26T02:58:03.673Z,80.11
2018-12-26T03:00:29.977Z,80.18
2018-12-26T03:02:56.341Z,80.17
2018-12-26T03:05:22.662Z,80.24
2018-12-26T03:07:48.967Z,80.06
2018-12-26T03:10:15.236Z,80.24
2018-12-26T03:12:41.535Z,80.40
2018-12-26T03:15:07.825Z,80.79
2018-12-26T03:17:34.096Z,80.47
2018-12-26T03:20:00.425Z,80.43
2018-12-26T03:22:26.712Z,80.56
2018-12-26T03:24:53.023Z,80.71
2018-12-26T03:27:19.306Z,81.04
2018-12-26T03:29:45.644Z,81.16
2018-12-26T03:32:11.965Z,81.40
2018-12-26T03:34:38.298Z,81.37
2018-12-26T03:37:04.560Z,81.56
2018-12-26T03:39:30.869Z,81.78
2018-12-26T03:41:57.159Z,81.60
2018-12-26T03:44:23.473Z,81.58
2018-12-26T03:46:49.946Z,81.81
2018-12-26T03:49:16.093Z,81.85
2018-12-26T03:51:42.372Z,81.81
2018-12-26T03:54:08.719Z,81.84
2018-12-26T03:56:35.060Z,81.87
2018-12-26T03:59:01.346Z,81.88
2018-12-26T04:01:27.631Z,81.77
2018-12-26T04:03:53.946Z,81.73
2018-12-26T04:06:20.248Z,81.67
2018-12-26T04:08:46.535Z,81.53
2018-12-26T04:11:12.807Z,81.59
2018-12-26T04:13:39.130Z,81.43
2018-12-26T04:16:05.417Z,81.43
2018-12-26T04:18:31.762Z,81.41
2018-12-26T04:20:58.016Z,81.45
2018-12-26T04:23:24.313Z,81.72
2018-12-26T04:25:50.632Z,81.59
2018-12-26T04:28:16.905Z,81.66
2018-12-26T04:30:43.406Z,81.51
2018-12-26T04:33:09.832Z,81.33
2018-12-26T04:35:36.181Z,81.42
2018-12-26T04:38:02.434Z,81.16
2018-12-26T04:40:28.753Z,81.05
2018-12-26T04:42:55.050Z,81.16
2018-12-26T04:45:21.330Z,81.06
2018-12-26T04:47:47.739Z,81.05
2018-12-26T04:50:14.033Z,80.83
2018-12-26T04:52:40.583Z,80.79
2018-12-26T04:55:06.906Z,80.74
2018-12-26T04:57:33.514Z,80.89
2018-12-26T04:59:59.795Z,81.08
2018-12-26T05:02:26.095Z,81.02
2018-12-26T05:04:52.672Z,81.04
2018-12-26T05:07:18.974Z,80.97
2018-12-26T05:09:45.314Z,81.02
2018-12-26T05:12:11.647Z,80.89
2018-12-26T05:14:37.930Z,80.85
2018-12-26T05:17:04.244Z,81.13
2018-12-26T05:19:30.540Z,81.22
2018-12-26T05:21:56.861Z,81.26
2018-12-26T05:24:23.410Z,81.35
2018-12-26T05:26:49.662Z,81.20
2018-12-26T05:29:15.956Z,81.26
2018-12-26T05:31:42.244Z,81.45
2018-12-26T05:34:08.558Z,81.46
2018-12-26T05:36:34.825Z,81.39
2018-12-26T05:39:01.121Z,81.44
2018-12-26T05:41:27.515Z,81.63
2018-12-26T05:43:53.741Z,81.61
2018-12-26T05:46:20.039Z,81.63
2018-12-26T05:48:46.337Z,81.58
2018-12-26T05:51:12.625Z,81.59
2018-12-26T05:53:38.918Z,81.46
2018-12-26T05:56:05.241Z,81.45
2018-12-26T05:58:31.537Z,81.53
2018-12-26T06:00:57.856Z,81.54
2018-12-26T06:03:24.135Z,81.53
2018-12-26T06:05:50.606Z,81.68
2018-12-26T06:08:16.920Z,81.38
2018-12-26T06:10:43.218Z,80.72
2018-12-26T06:13:09.524Z,80.19
2018-12-26T06:15:35.905Z,79.67
2018-12-26T06:18:02.098Z,79.09
2018-12-26T06:20:28.417Z,78.46
2018-12-26T06:22:54.769Z,77.83
2018-12-26T06:25:21.048Z,77.06
2018-12-26T06:27:51.364Z,76.56
2018-12-26T06:30:13.649Z,75.85
2018-12-26T06:32:39.931Z,74.90
2018-12-26T06:35:06.214Z,74.95
2018-12-26T06:37:32.511Z,74.51
2018-12-26T06:39:58.819Z,73.60
2018-12-26T06:42:25.105Z,72.41
2018-12-26T06:44:51.447Z,72.18
2018-12-26T06:47:17.726Z,71.61
2018-12-26T06:49:45.342Z,69.89
2018-12-26T06:52:10.321Z,68.58
2018-12-26T06:54:36.612Z,67.99
2018-12-26T06:57:02.903Z,67.91
2018-12-26T06:59:29.179Z,67.78
2018-12-26T07:01:55.513Z,66.53
2018-12-26T07:04:21.811Z,65.17
2018-12-26T07:06:48.115Z,65.68
2018-12-26T07:09:14.454Z,65.98
2018-12-26T07:11:40.747Z,65.61
2018-12-26T07:14:07.056Z,65.50
2018-12-26T07:16:33.351Z,64.66
2018-12-26T07:18:59.615Z,64.59
2018-12-26T07:21:25.904Z,64.72
2018-12-26T07:23:52.310Z,63.65
2018-12-26T07:26:18.597Z,63.69
2018-12-26T07:28:44.892Z,62.43
2018-12-26T07:31:11.174Z,63.78
2018-12-26T07:33:37.488Z,64.85
2018-12-26T07:36:03.770Z,64.60
2018-12-26T07:38:30.066Z,64.11
2018-12-26T07:40:56.343Z,64.26
2018-12-26T07:43:22.626Z,63.45
2018-12-26T07:45:48.931Z,63.37
2018-12-26T07:48:15.228Z,63.49
2018-12-26T07:50:41.544Z,63.13
2018-12-26T07:53:07.820Z,62.58
2018-12-26T07:55:34.153Z,62.36
2018-12-26T07:58:00.462Z,62.68
2018-12-26T08:00:26.745Z,62.91
2018-12-26T08:02:53.037Z,63.88
2018-12-26T08:05:19.323Z,63.17
2018-12-26T08:07:45.603Z,62.99
2018-12-26T08:10:11.876Z,62.70
2018-12-26T08:12:38.190Z,62.39
2018-12-26T08:15:10.497Z,62.46
2018-12-26T08:17:30.916Z,63.00
2018-12-26T08:19:57.071Z,61.36
2018-12-26T08:22:23.370Z,60.76
2018-12-26T08:24:49.674Z,61.84
2018-12-26T08:27:15.981Z,59.74
2018-12-26T08:29:42.270Z,61.14
2018-12-26T08:32:08.563Z,60.67
2018-12-26T08:34:34.951Z,60.72
2018-12-26T08:37:01.268Z,60.18
2018-12-26T08:39:27.551Z,60.01
2018-12-26T08:41:53.841Z,59.15
2018-12-26T08:44:20.119Z,58.34
2018-12-26T08:46:46.443Z,58.31
2018-12-26T08:49:12.735Z,58.86
2018-12-26T08:51:39.002Z,58.10
2018-12-26T08:54:05.295Z,58.47
2018-12-26T08:56:31.633Z,58.83
2018-12-26T08:58:57.943Z,56.37
2018-12-26T09:01:24.227Z,57.25
2018-12-26T09:03:50.527Z,57.28
2018-12-26T09:06:16.924Z,58.19
2018-12-26T09:08:43.204Z,58.40
2018-12-26T09:11:09.535Z,58.61
2018-12-26T09:13:35.829Z,60.76
2018-12-26T09:16:02.095Z,61.31
2018-12-26T09:18:28.387Z,59.83
2018-12-26T09:20:54.671Z,58.25
2018-12-26T09:23:20.959Z,56.23
2018-12-26T09:25:47.235Z,57.46
2018-12-26T09:28:13.539Z,56.91
2018-12-26T09:30:39.877Z,59.38
2018-12-26T09:33:06.189Z,60.79
2018-12-26T09:35:32.461Z,64.40
2018-12-26T09:37:58.762Z,65.99
2018-12-26T09:40:25.066Z,66.61
2018-12-26T09:42:51.343Z,68.01
2018-12-26T09:45:17.651Z,69.13
2018-12-26T09:47:43.973Z,69.63
2018-12-26T09:50:10.245Z,70.19
2018-12-26T09:52:36.541Z,69.72
2018-12-26T09:55:02.827Z,69.66
2018-12-26T09:57:29.210Z,68.33
2018-12-26T09:59:55.531Z,68.25
2018-12-26T10:02:21.826Z,68.40
2018-12-26T10:04:48.105Z,68.46
2018-12-26T10:07:14.408Z,67.63
2018-12-26T10:09:40.707Z,65.39
2018-12-26T10:12:07.010Z,63.42
2018-12-26T10:14:33.303Z,61.12
2018-12-26T10:16:59.606Z,58.53
2018-12-26T10:19:25.903Z,58.81
2018-12-26T10:21:52.204Z,61.21
2018-12-26T10:24:18.484Z,62.75
2018-12-26T10:26:44.795Z,63.98
2018-12-26T10:29:11.091Z,64.64
2018-12-26T10:31:37.360Z,62.73
2018-12-26T10:34:03.649Z,63.21
2018-12-26T10:36:29.937Z,62.40
2018-12-26T10:38:56.218Z,63.07
2018-12-26T10:41:22.503Z,64.04
2018-12-26T10:43:48.783Z,65.64
2018-12-26T10:46:15.114Z,67.07
2018-12-26T10:48:41.393Z,65.95
2018-12-26T10:51:07.774Z,64.77
2018-12-26T10:53:34.126Z,66.23
2018-12-26T10:56:00.419Z,66.92
2018-12-26T10:58:26.770Z,68.09
2018-12-26T11:00:53.071Z,68.15
2018-12-26T11:03:19.360Z,68.06
2018-12-26T11:05:45.669Z,67.83
2018-12-26T11:08:11.933Z,67.89
2018-12-26T11:10:38.230Z,67.81
2018-12-26T11:13:04.512Z,67.34
2018-12-26T11:15:30.786Z,65.57
2018-12-26T11:17:57.135Z,63.29
2018-12-26T11:20:23.554Z,61.25
2018-12-26T11:22:49.846Z,59.40
2018-12-26T11:25:16.228Z,59.39
2018-12-26T11:27:42.510Z,59.95
2018-12-26T11:30:08.835Z,61.38
2018-12-26T11:32:35.115Z,63.55
2018-12-26T11:35:01.402Z,63.66
2018-12-26T11:37:27.703Z,61.77
2018-12-26T11:39:54.065Z,62.15
2018-12-26T11:42:20.442Z,64.54
2018-12-26T11:44:46.727Z,65.46
2018-12-26T11:47:13.051Z,65.97
2018-12-26T11:49:39.336Z,66.74
2018-12-26T11:52:07.137Z,67.23
2018-12-26T11:54:31.930Z,67.02
2018-12-26T11:56:58.266Z,64.25
2018-12-26T11:59:27.263Z,64.86
2018-12-26T12:01:50.832Z,66.76
2018-12-26T12:04:17.132Z,67.85
2018-12-26T12:06:43.429Z,68.45
2018-12-26T12:09:09.712Z,69.08
2018-12-26T12:11:36.022Z,69.63
2018-12-26T12:14:02.313Z,69.54
2018-12-26T12:16:28.611Z,69.24
2018-12-26T12:18:54.913Z,69.25
2018-12-26T12:21:21.195Z,70.16
2018-12-26T12:23:47.491Z,70.57
2018-12-26T12:26:13.788Z,70.95
2018-12-26T12:28:40.118Z,70.81
2018-12-26T12:31:06.401Z,71.29
2018-12-26T12:33:32.736Z,71.68
2018-12-26T12:35:59.036Z,71.91
2018-12-26T12:38:25.332Z,72.64
2018-12-26T12:40:51.693Z,72.46
2018-12-26T12:43:17.950Z,72.99
2018-12-26T12:45:44.271Z,73.41
2018-12-26T12:48:10.583Z,73.36
2018-12-26T12:50:36.929Z,73.29
2018-12-26T12:53:03.258Z,73.66
2018-12-26T12:55:29.537Z,73.85
2018-12-26T12:57:55.826Z,74.24
2018-12-26T13:00:22.154Z,74.56
2018-12-26T13:02:48.450Z,74.81
2018-12-26T13:05:14.755Z,75.36
2018-12-26T13:07:41.048Z,75.39
2018-12-26T13:10:07.326Z,75.91
2018-12-26T13:12:33.668Z,75.96
2018-12-26T13:14:59.954Z,76.63
2018-12-26T13:17:26.242Z,76.61
2018-12-26T13:19:52.525Z,76.78
2018-12-26T13:22:18.827Z,77.49
2018-12-26T13:24:45.148Z,77.21
2018-12-26T13:27:11.386Z,77.44
2018-12-26T13:29:37.724Z,77.86
2018-12-26T13:32:04.000Z,78.03
2018-12-26T13:34:30.268Z,78.11
2018-12-26T13:36:56.604Z,78.22
2018-12-26T13:39:22.886Z,77.99
2018-12-26T13:41:49.207Z,78.51
2018-12-26T13:44:15.505Z,78.50
2018-12-26T13:46:41.779Z,78.78
2018-12-26T13:49:08.108Z,78.97
2018-12-26T13:51:34.419Z,79.21
2018-12-26T13:54:00.703Z,79.36
2018-12-26T13:56:27.060Z,79.53
2018-12-26T13:58:53.321Z,79.79
2018-12-26T14:01:19.684Z,79.99
2018-12-26T14:03:45.967Z,80.08
2018-12-26T14:06:12.268Z,80.20
2018-12-26T14:08:38.541Z,80.22
2018-12-26T14:11:04.836Z,80.26
2018-12-26T14:13:31.168Z,80.17
2018-12-26T14:15:57.477Z,80.41
2018-12-26T14:18:24.144Z,80.25
2018-12-26T14:20:50.549Z,80.39
2018-12-26T14:23:16.844Z,80.52
2018-12-26T14:25:43.147Z,80.58
2018-12-26T14:28:09.429Z,80.57
2018-12-26T14:30:35.792Z,80.80
2018-12-26T14:33:02.039Z,81.02
2018-12-26T14:35:28.325Z,81.11
2018-12-26T14:37:54.632Z,81.13
2018-12-26T14:40:20.927Z,81.29
2018-12-26T14:42:47.211Z,81.40
2018-12-26T14:45:13.492Z,81.62
2018-12-26T14:47:39.775Z,81.76
2018-12-26T14:50:06.148Z,81.87
2018-12-26T14:52:32.396Z,82.29
2018-12-26T14:54:58.687Z,82.21
2018-12-26T14:57:24.996Z,82.14
2018-12-26T14:59:51.291Z,82.31
2018-12-26T15:02:17.701Z,82.57
2018-12-26T15:04:44.010Z,83.06
2018-12-26T15:07:10.313Z,83.35
2018-12-26T15:09:36.609Z,83.34
2018-12-26T15:12:02.932Z,83.16
2018-12-26T15:14:29.225Z,83.17
2018-12-26T15:16:55.616Z,83.08
2018-12-26T15:19:21.904Z,82.79
2018-12-26T15:21:49.254Z,82.92
2018-12-26T15:24:14.481Z,83.46
2018-12-26T15:26:40.764Z,82.85
2018-12-26T15:29:07.061Z,82.80
2018-12-26T15:31:33.368Z,82.80
2018-12-26T15:33:59.684Z,82.74
2018-12-26T15:36:26.009Z,82.39
2018-12-26T15:38:52.301Z,82.37
2018-12-26T15:41:18.611Z,82.03
2018-12-26T15:43:44.929Z,81.69
2018-12-26T15:46:11.246Z,81.43
2018-12-26T15:48:37.521Z,81.43
2018-12-26T15:51:03.794Z,81.42
2018-12-26T15:53:30.127Z,81.58
2018-12-26T15:55:56.405Z,81.32
2018-12-26T15:58:22.716Z,81.23
2018-12-26T16:00:49.022Z,81.32
2018-12-26T16:03:15.332Z,81.73
2018-12-26T16:05:41.624Z,81.56
2018-12-26T16:08:07.951Z,81.36
2018-12-26T16:10:34.251Z,81.31
2018-12-26T16:13:00.590Z,81.20
2018-12-26T16:15:26.896Z,81.07
2018-12-26T16:17:53.173Z,80.54
2018-12-26T16:20:19.487Z,80.03
2018-12-26T16:22:45.810Z,79.89
2018-12-26T16:25:12.108Z,79.70
2018-12-26T16:27:38.396Z,79.67
2018-12-26T16:30:08.861Z,79.69
2018-12-26T16:32:35.172Z,79.84
2018-12-26T16:35:01.451Z,79.77
2018-12-26T16:37:27.750Z,79.79
2018-12-26T16:39:54.035Z,79.79
2018-12-26T16:42:20.324Z,80.05
2018-12-26T16:44:46.814Z,79.90
2018-12-26T16:47:13.073Z,79.53
2018-12-26T16:49:39.353Z,79.36
2018-12-26T16:52:05.666Z,79.23
2018-12-26T16:54:31.968Z,79.14
2018-12-26T16:56:58.262Z,79.08
2018-12-26T16:59:24.554Z,78.85
2018-12-26T17:01:50.986Z,78.54
2018-12-26T17:04:17.263Z,78.72
2018-12-26T17:06:43.584Z,78.07
2018-12-26T17:09:09.892Z,78.05
2018-12-26T17:11:36.178Z,77.43
2018-12-26T17:14:02.479Z,77.07
2018-12-26T17:16:28.769Z,76.82
2018-12-26T17:18:55.077Z,76.63
2018-12-26T17:21:21.381Z,76.52
2018-12-26T17:23:47.722Z,75.92
2018-12-26T17:26:14.034Z,75.68
2018-12-26T17:28:40.317Z,75.78
2018-12-26T17:31:06.587Z,75.75
2018-12-26T17:33:32.898Z,75.84
2018-12-26T17:35:59.209Z,75.89
2018-12-26T17:38:25.498Z,75.98
2018-12-26T17:40:51.813Z,76.27
2018-12-26T17:43:18.105Z,76.77
2018-12-26T17:45:44.408Z,76.81
2018-12-26T17:48:10.741Z,76.86
2018-12-26T17:50:37.013Z,77.12
2018-12-26T17:53:03.299Z,77.47
2018-12-26T17:55:29.615Z,78.13
2018-12-26T17:57:55.892Z,78.42
2018-12-26T18:00:22.204Z,78.46
2018-12-26T18:02:48.504Z,78.41
2018-12-26T18:05:14.776Z,78.56
2018-12-26T18:07:41.063Z,78.37
2018-12-26T18:10:07.373Z,77.87
2018-12-26T18:12:33.674Z,77.90
2018-12-26T18:14:59.971Z,77.35
2018-12-26T18:17:26.268Z,77.12
2018-12-26T18:19:52.591Z,76.72
2018-12-26T18:22:18.861Z,76.58
2018-12-26T18:24:45.157Z,76.47
2018-12-26T18:27:11.458Z,76.64
2018-12-26T18:29:37.760Z,76.78
2018-12-26T18:32:04.069Z,76.97
2018-12-26T18:34:30.349Z,76.90
2018-12-26T18:36:56.657Z,75.93
2018-12-26T18:39:22.958Z,75.67
2018-12-26T18:41:49.278Z,75.70
2018-12-26T18:44:15.583Z,75.10
2018-12-26T18:46:41.856Z,74.65
2018-12-26T18:49:08.175Z,74.74
2018-12-26T18:51:34.508Z,74.79
2018-12-26T18:54:00.812Z,74.73
2018-12-26T18:56:27.085Z,74.77
2018-12-26T18:58:53.402Z,74.75
2018-12-26T19:01:19.716Z,74.58
2018-12-26T19:03:45.986Z,74.82
2018-12-26T19:06:12.272Z,75.04
2018-12-26T19:08:38.569Z,75.15
2018-12-26T19:11:04.878Z,75.45
2018-12-26T19:13:31.184Z,75.58
2018-12-26T19:15:57.490Z,75.43
2018-12-26T19:18:23.793Z,75.47
2018-12-26T19:20:50.079Z,75.46
2018-12-26T19:23:16.386Z,74.58
2018-12-26T19:25:42.674Z,74.62
2018-12-26T19:28:08.969Z,74.44
2018-12-26T19:30:35.273Z,73.90
2018-12-26T19:33:01.552Z,73.68
2018-12-26T19:35:27.843Z,73.22
2018-12-26T19:37:54.159Z,73.31
2018-12-26T19:40:20.451Z,73.30
2018-12-26T19:42:46.741Z,73.00
2018-12-26T19:45:13.074Z,72.88
2018-12-26T19:47:39.338Z,72.81
2018-12-26T19:50:05.634Z,72.58
2018-12-26T19:52:31.952Z,72.27
2018-12-26T19:54:58.240Z,72.26
2018-12-26T19:57:24.520Z,72.30
2018-12-26T19:59:50.838Z,72.09
2018-12-26T20:02:17.127Z,72.26
2018-12-26T20:04:43.427Z,71.99
2018-12-26T20:07:09.744Z,71.73
2018-12-26T20:09:36.027Z,71.68
2018-12-26T20:12:02.334Z,71.50
2018-12-26T20:14:28.637Z,71.44
2018-12-26T20:16:56.582Z,71.29
2018-12-26T20:19:22.875Z,71.21
2018-12-26T20:21:49.175Z,70.79
2018-12-26T20:24:15.489Z,71.07
2018-12-26T20:26:41.766Z,71.37
2018-12-26T20:29:08.052Z,71.46
2018-12-26T20:31:34.349Z,71.56
2018-12-26T20:34:00.619Z,71.74
2018-12-26T20:36:26.915Z,71.66
2018-12-26T20:38:53.200Z,71.95
2018-12-26T20:41:19.504Z,71.98
2018-12-26T20:43:45.793Z,72.02
2018-12-26T20:46:12.076Z,72.06
2018-12-26T20:48:38.372Z,71.98
2018-12-26T20:51:04.664Z,71.97
2018-12-26T20:53:30.945Z,72.08
2018-12-26T20:55:57.228Z,72.30
2018-12-26T20:58:23.546Z,72.31
2018-12-26T21:00:49.829Z,72.59
2018-12-26T21:03:16.125Z,72.51
2018-12-26T21:05:42.454Z,72.73
2018-12-26T21:08:08.743Z,72.88
2018-12-26T21:10:35.031Z,72.92
2018-12-26T21:13:01.321Z,72.80
2018-12-26T21:15:27.615Z,73.02
2018-12-26T21:17:53.931Z,72.97
2018-12-26T21:20:20.207Z,72.88
2018-12-26T21:22:46.560Z,72.64
2018-12-26T21:25:12.841Z,72.60
2018-12-26T21:27:39.231Z,72.38
2018-12-26T21:30:08.556Z,72.12
2018-12-26T21:32:34.864Z,71.81
2018-12-26T21:35:01.145Z,71.87
2018-12-26T21:37:28.630Z,71.86
2018-12-26T21:39:53.703Z,71.58
2018-12-26T21:42:20.026Z,71.55
2018-12-26T21:44:46.300Z,71.76
2018-12-26T21:47:12.608Z,71.91
2018-12-26T21:49:38.889Z,72.09
2018-12-26T21:52:05.186Z,71.77
2018-12-26T21:54:31.491Z,71.79
2018-12-26T21:56:57.829Z,72.09
2018-12-26T21:59:24.112Z,71.78
2018-12-26T22:01:50.412Z,71.62
2018-12-26T22:04:16.740Z,71.85
2018-12-26T22:06:42.994Z,71.95
2018-12-26T22:09:09.300Z,71.95
2018-12-26T22:11:35.588Z,71.77
2018-12-26T22:14:01.881Z,71.50
2018-12-26T22:16:28.180Z,71.58
2018-12-26T22:18:54.488Z,71.68
2018-12-26T22:21:20.781Z,71.69
2018-12-26T22:23:47.082Z,71.81
2018-12-26T22:26:13.377Z,72.00
2018-12-26T22:28:39.680Z,71.87
2018-12-26T22:31:05.999Z,71.63
2018-12-26T22:33:32.278Z,71.68
2018-12-26T22:35:58.586Z,71.64
2018-12-26T22:38:24.872Z,71.50
2018-12-26T22:40:51.222Z,71.29
2018-12-26T22:43:17.490Z,71.32
2018-12-26T22:45:44.301Z,71.42
2018-12-26T22:48:10.149Z,71.26
2018-12-26T22:50:36.464Z,70.93
2018-12-26T22:53:02.762Z,70.92
2018-12-26T22:55:29.045Z,70.81
2018-12-26T22:57:55.346Z,70.79
2018-12-26T23:00:21.679Z,70.66
2018-12-26T23:02:48.071Z,70.56
2018-12-26T23:05:14.383Z,70.06
2018-12-26T23:07:40.666Z,70.15
2018-12-26T23:10:06.970Z,69.84
2018-12-26T23:12:33.310Z,69.63
2018-12-26T23:14:59.586Z,69.72
2018-12-26T23:17:25.868Z,69.57
2018-12-26T23:19:52.156Z,69.38
2018-12-26T23:22:18.437Z,69.44
2018-12-26T23:24:44.751Z,68.95
2018-12-26T23:27:11.022Z,69.12
2018-12-26T23:29:37.309Z,68.57
2018-12-26T23:32:03.601Z,68.83
2018-12-26T23:34:29.906Z,68.55
2018-12-26T23:36:56.227Z,68.23
2018-12-26T23:39:22.622Z,68.39
2018-12-26T23:41:48.922Z,68.13
2018-12-26T23:44:15.229Z,68.10
2018-12-26T23:46:41.518Z,67.74
2018-12-26T23:49:07.820Z,67.77
2018-12-26T23:51:34.120Z,67.37
2018-12-26T23:54:00.391Z,67.64
2018-12-26T23:56:26.678Z,67.65
2018-12-26T23:58:52.995Z,68.05
